sensor_id;sensor_type;location;lat;lon;timestamp;temperature;humidity
75387;DHT22;63966;47.914;22.266;2023-02-15T00:01:48;2.04;86.95
75387;DHT22;63966;47.914;22.266;2023-02-15T00:04:52;2.01;87.01
75387;DHT22;63966;47.914;22.266;2023-02-15T00:07:56;1.98;86.96
75387;DHT22;63966;47.914;22.266;2023-02-15T00:11:11;1.98;86.85
75387;DHT22;63966;47.914;22.266;2023-02-15T00:14:20;1.95;86.93
75387;DHT22;63966;47.914;22.266;2023-02-15T00:17:26;1.91;86.94
75387;DHT22;63966;47.914;22.266;2023-02-15T00:20:29;1.87;87.18
75387;DHT22;63966;47.914;22.266;2023-02-15T00:23:33;1.78;87.39
75387;DHT22;63966;47.914;22.266;2023-02-15T00:26:39;1.86;87.01
75387;DHT22;63966;47.914;22.266;2023-02-15T00:29:43;1.73;87.41
75387;DHT22;63966;47.914;22.266;2023-02-15T00:32:47;1.80;87.14
75387;DHT22;63966;47.914;22.266;2023-02-15T00:35:57;1.80;87.04
75387;DHT22;63966;47.914;22.266;2023-02-15T00:39:00;1.80;87.01
75387;DHT22;63966;47.914;22.266;2023-02-15T00:42:04;1.78;87.08
75387;DHT22;63966;47.914;22.266;2023-02-15T00:45:07;1.74;87.12
75387;DHT22;63966;47.914;22.266;2023-02-15T00:48:11;1.60;87.66
75387;DHT22;63966;47.914;22.266;2023-02-15T00:51:14;1.57;87.99
75387;DHT22;63966;47.914;22.266;2023-02-15T00:54:18;1.64;87.60
75387;DHT22;63966;47.914;22.266;2023-02-15T00:57:21;1.67;87.40
75387;DHT22;63966;47.914;22.266;2023-02-15T01:00:25;1.73;87.30
75387;DHT22;63966;47.914;22.266;2023-02-15T01:03:29;1.68;87.18
75387;DHT22;63966;47.914;22.266;2023-02-15T01:06:32;1.63;87.50
75387;DHT22;63966;47.914;22.266;2023-02-15T01:09:35;1.57;87.77
75387;DHT22;63966;47.914;22.266;2023-02-15T01:12:39;1.47;88.00
75387;DHT22;63966;47.914;22.266;2023-02-15T01:15:43;1.45;88.23
75387;DHT22;63966;47.914;22.266;2023-02-15T01:18:47;1.50;88.06
75387;DHT22;63966;47.914;22.266;2023-02-15T01:21:51;1.43;88.07
75387;DHT22;63966;47.914;22.266;2023-02-15T01:24:54;1.47;87.81
75387;DHT22;63966;47.914;22.266;2023-02-15T01:27:58;1.43;88.01
75387;DHT22;63966;47.914;22.266;2023-02-15T01:31:13;1.40;88.12
75387;DHT22;63966;47.914;22.266;2023-02-15T01:34:17;1.43;88.11
75387;DHT22;63966;47.914;22.266;2023-02-15T01:37:21;1.52;87.77
75387;DHT22;63966;47.914;22.266;2023-02-15T01:40:24;1.47;87.60
75387;DHT22;63966;47.914;22.266;2023-02-15T01:43:43;1.57;87.32
75387;DHT22;63966;47.914;22.266;2023-02-15T01:46:51;1.59;87.17
75387;DHT22;63966;47.914;22.266;2023-02-15T01:50:12;1.49;87.31
75387;DHT22;63966;47.914;22.266;2023-02-15T01:53:38;1.43;87.70
75387;DHT22;63966;47.914;22.266;2023-02-15T01:56:46;1.45;87.64
75387;DHT22;63966;47.914;22.266;2023-02-15T01:59:58;1.56;87.42
75387;DHT22;63966;47.914;22.266;2023-02-15T02:03:02;1.55;87.38
75387;DHT22;63966;47.914;22.266;2023-02-15T02:06:06;1.53;87.16
75387;DHT22;63966;47.914;22.266;2023-02-15T02:09:10;1.53;87.29
75387;DHT22;63966;47.914;22.266;2023-02-15T02:12:14;1.49;87.31
75387;DHT22;63966;47.914;22.266;2023-02-15T02:15:20;1.49;87.44
75387;DHT22;63966;47.914;22.266;2023-02-15T02:19:04;1.56;87.32
75387;DHT22;63966;47.914;22.266;2023-02-15T02:29:24;1.76;86.71
75387;DHT22;63966;47.914;22.266;2023-02-15T02:36:02;1.70;86.84
75387;DHT22;63966;47.914;22.266;2023-02-15T02:49:15;1.42;87.70
75387;DHT22;63966;47.914;22.266;2023-02-15T02:55:47;1.25;88.10
75387;DHT22;63966;47.914;22.266;2023-02-15T02:59:00;1.35;88.02
75387;DHT22;63966;47.914;22.266;2023-02-15T03:02:15;1.34;87.90
75387;DHT22;63966;47.914;22.266;2023-02-15T03:05:24;1.29;87.89
75387;DHT22;63966;47.914;22.266;2023-02-15T03:08:38;1.26;88.13
75387;DHT22;63966;47.914;22.266;2023-02-15T03:11:46;1.19;88.20
75387;DHT22;63966;47.914;22.266;2023-02-15T03:15:12;1.22;87.94
75387;DHT22;63966;47.914;22.266;2023-02-15T03:18:22;1.12;88.31
75387;DHT22;63966;47.914;22.266;2023-02-15T03:21:46;1.01;88.78
75387;DHT22;63966;47.914;22.266;2023-02-15T03:25:07;1.07;88.69
75387;DHT22;63966;47.914;22.266;2023-02-15T03:28:19;1.05;88.43
75387;DHT22;63966;47.914;22.266;2023-02-15T03:31:28;1.01;88.74
75387;DHT22;63966;47.914;22.266;2023-02-15T03:34:33;0.92;89.01
75387;DHT22;63966;47.914;22.266;2023-02-15T03:37:59;0.81;89.08
75387;DHT22;63966;47.914;22.266;2023-02-15T03:41:04;0.74;89.57
75387;DHT22;63966;47.914;22.266;2023-02-15T03:44:25;0.70;89.71
75387;DHT22;63966;47.914;22.266;2023-02-15T03:47:33;0.71;89.70
75387;DHT22;63966;47.914;22.266;2023-02-15T03:50:38;0.70;89.70
75387;DHT22;63966;47.914;22.266;2023-02-15T03:54:16;0.73;89.45
75387;DHT22;63966;47.914;22.266;2023-02-15T03:57:40;0.64;89.85
75387;DHT22;63966;47.914;22.266;2023-02-15T04:01:27;0.64;90.13
75387;DHT22;63966;47.914;22.266;2023-02-15T04:04:48;0.76;89.55
75387;DHT22;63966;47.914;22.266;2023-02-15T04:07:51;0.69;89.54
75387;DHT22;63966;47.914;22.266;2023-02-15T04:10:56;0.56;89.98
75387;DHT22;63966;47.914;22.266;2023-02-15T04:14:01;0.61;89.55
75387;DHT22;63966;47.914;22.266;2023-02-15T04:17:24;0.46;89.82
75387;DHT22;63966;47.914;22.266;2023-02-15T04:20:28;0.46;89.86
75387;DHT22;63966;47.914;22.266;2023-02-15T04:23:50;0.39;89.57
75387;DHT22;63966;47.914;22.266;2023-02-15T04:27:12;0.16;90.30
75387;DHT22;63966;47.914;22.266;2023-02-15T04:30:17;0.08;90.83
75387;DHT22;63966;47.914;22.266;2023-02-15T04:33:21;0.08;91.28
75387;DHT22;63966;47.914;22.266;2023-02-15T04:36:25;0.06;91.25
75387;DHT22;63966;47.914;22.266;2023-02-15T04:39:28;0.08;91.34
75387;DHT22;63966;47.914;22.266;2023-02-15T04:42:32;-0.03;91.36
75387;DHT22;63966;47.914;22.266;2023-02-15T04:45:36;-0.06;91.65
75387;DHT22;63966;47.914;22.266;2023-02-15T04:48:39;0.21;91.58
75387;DHT22;63966;47.914;22.266;2023-02-15T04:51:43;0.30;90.96
75387;DHT22;63966;47.914;22.266;2023-02-15T04:54:46;0.29;90.67
75387;DHT22;63966;47.914;22.266;2023-02-15T04:57:50;0.28;90.80
75387;DHT22;63966;47.914;22.266;2023-02-15T05:00:56;0.30;90.52
75387;DHT22;63966;47.914;22.266;2023-02-15T05:04:00;0.21;90.68
75387;DHT22;63966;47.914;22.266;2023-02-15T05:07:03;0.13;90.87
75387;DHT22;63966;47.914;22.266;2023-02-15T05:10:07;0.30;90.07
75387;DHT22;63966;47.914;22.266;2023-02-15T05:13:11;0.15;90.39
75387;DHT22;63966;47.914;22.266;2023-02-15T05:16:14;0.06;90.20
75387;DHT22;63966;47.914;22.266;2023-02-15T05:19:18;-0.15;90.58
75387;DHT22;63966;47.914;22.266;2023-02-15T05:22:21;-0.33;90.95
75387;DHT22;63966;47.914;22.266;2023-02-15T05:25:25;-0.54;91.17
75387;DHT22;63966;47.914;22.266;2023-02-15T05:28:47;-0.58;91.66
75387;DHT22;63966;47.914;22.266;2023-02-15T05:31:50;-0.60;91.64
75387;DHT22;63966;47.914;22.266;2023-02-15T05:34:55;-0.71;91.87
75387;DHT22;63966;47.914;22.266;2023-02-15T05:37:58;-0.83;92.04
75387;DHT22;63966;47.914;22.266;2023-02-15T05:41:01;-0.81;92.14
75387;DHT22;63966;47.914;22.266;2023-02-15T05:44:05;-0.68;92.48
75387;DHT22;63966;47.914;22.266;2023-02-15T05:47:08;-0.23;92.38
75387;DHT22;63966;47.914;22.266;2023-02-15T05:50:12;0.61;89.07
75387;DHT22;63966;47.914;22.266;2023-02-15T05:53:15;1.22;87.13
75387;DHT22;63966;47.914;22.266;2023-02-15T05:56:18;1.80;84.54
75387;DHT22;63966;47.914;22.266;2023-02-15T05:59:22;2.48;82.15
75387;DHT22;63966;47.914;22.266;2023-02-15T06:02:25;3.17;79.39
75387;DHT22;63966;47.914;22.266;2023-02-15T06:05:29;3.82;76.59
75387;DHT22;63966;47.914;22.266;2023-02-15T06:08:34;4.16;74.84
75387;DHT22;63966;47.914;22.266;2023-02-15T06:11:38;4.61;72.70
75387;DHT22;63966;47.914;22.266;2023-02-15T06:14:42;4.97;70.99
75387;DHT22;63966;47.914;22.266;2023-02-15T06:17:45;4.99;70.96
75387;DHT22;63966;47.914;22.266;2023-02-15T06:20:49;5.24;69.97
75387;DHT22;63966;47.914;22.266;2023-02-15T06:23:52;5.42;69.47
75387;DHT22;63966;47.914;22.266;2023-02-15T06:26:56;5.92;67.83
75387;DHT22;63966;47.914;22.266;2023-02-15T06:30:00;6.44;65.78
75387;DHT22;63966;47.914;22.266;2023-02-15T06:33:04;6.75;64.87
75387;DHT22;63966;47.914;22.266;2023-02-15T06:36:07;6.55;65.04
75387;DHT22;63966;47.914;22.266;2023-02-15T06:39:11;7.12;63.42
75387;DHT22;63966;47.914;22.266;2023-02-15T06:42:15;7.74;61.77
75387;DHT22;63966;47.914;22.266;2023-02-15T06:45:21;8.17;59.86
75387;DHT22;63966;47.914;22.266;2023-02-15T06:48:24;8.60;58.50
75387;DHT22;63966;47.914;22.266;2023-02-15T06:51:28;8.36;59.13
75387;DHT22;63966;47.914;22.266;2023-02-15T06:54:33;9.01;57.17
75387;DHT22;63966;47.914;22.266;2023-02-15T06:57:37;9.39;56.22
75387;DHT22;63966;47.914;22.266;2023-02-15T07:00:41;9.78;54.37
75387;DHT22;63966;47.914;22.266;2023-02-15T07:03:46;9.76;54.46
75387;DHT22;63966;47.914;22.266;2023-02-15T07:06:49;9.22;55.20
75387;DHT22;63966;47.914;22.266;2023-02-15T07:09:56;9.29;55.67
75387;DHT22;63966;47.914;22.266;2023-02-15T07:13:01;9.20;55.38
75387;DHT22;63966;47.914;22.266;2023-02-15T07:16:05;9.91;54.19
75387;DHT22;63966;47.914;22.266;2023-02-15T07:19:10;10.29;53.13
75387;DHT22;63966;47.914;22.266;2023-02-15T07:22:15;10.99;50.82
75387;DHT22;63966;47.914;22.266;2023-02-15T07:25:19;11.28;50.69
75387;DHT22;63966;47.914;22.266;2023-02-15T07:28:22;11.43;49.27
75387;DHT22;63966;47.914;22.266;2023-02-15T07:31:26;11.04;50.01
75387;DHT22;63966;47.914;22.266;2023-02-15T07:34:29;11.17;49.85
75387;DHT22;63966;47.914;22.266;2023-02-15T07:37:33;11.38;49.76
75387;DHT22;63966;47.914;22.266;2023-02-15T07:40:37;11.69;48.58
75387;DHT22;63966;47.914;22.266;2023-02-15T07:43:42;11.66;48.49
75387;DHT22;63966;47.914;22.266;2023-02-15T07:46:47;11.83;47.69
75387;DHT22;63966;47.914;22.266;2023-02-15T07:49:51;11.32;49.66
75387;DHT22;63966;47.914;22.266;2023-02-15T07:52:55;11.94;47.77
75387;DHT22;63966;47.914;22.266;2023-02-15T07:56:00;11.98;46.58
75387;DHT22;63966;47.914;22.266;2023-02-15T07:59:04;11.75;47.38
75387;DHT22;63966;47.914;22.266;2023-02-15T08:02:11;12.40;46.53
75387;DHT22;63966;47.914;22.266;2023-02-15T08:05:15;12.07;46.47
75387;DHT22;63966;47.914;22.266;2023-02-15T08:08:21;11.46;47.75
75387;DHT22;63966;47.914;22.266;2023-02-15T08:11:38;10.41;50.88
75387;DHT22;63966;47.914;22.266;2023-02-15T08:14:44;9.74;53.07
75387;DHT22;63966;47.914;22.266;2023-02-15T08:17:48;9.25;54.47
75387;DHT22;63966;47.914;22.266;2023-02-15T08:20:51;8.64;56.21
75387;DHT22;63966;47.914;22.266;2023-02-15T08:23:57;8.17;56.43
75387;DHT22;63966;47.914;22.266;2023-02-15T08:27:00;7.75;58.33
75387;DHT22;63966;47.914;22.266;2023-02-15T08:30:08;7.64;58.86
75387;DHT22;63966;47.914;22.266;2023-02-15T08:33:12;7.48;58.23
75387;DHT22;63966;47.914;22.266;2023-02-15T08:36:19;7.53;58.88
75387;DHT22;63966;47.914;22.266;2023-02-15T08:39:23;7.13;57.95
75387;DHT22;63966;47.914;22.266;2023-02-15T08:42:26;6.91;59.73
75387;DHT22;63966;47.914;22.266;2023-02-15T08:45:30;6.91;58.30
75387;DHT22;63966;47.914;22.266;2023-02-15T08:48:34;6.74;59.30
75387;DHT22;63966;47.914;22.266;2023-02-15T08:51:38;6.58;59.56
75387;DHT22;63966;47.914;22.266;2023-02-15T08:54:42;6.58;60.83
75387;DHT22;63966;47.914;22.266;2023-02-15T08:57:46;6.55;59.82
75387;DHT22;63966;47.914;22.266;2023-02-15T09:00:51;6.79;59.60
75387;DHT22;63966;47.914;22.266;2023-02-15T09:04:03;6.75;60.84
75387;DHT22;63966;47.914;22.266;2023-02-15T09:07:08;6.55;59.59
75387;DHT22;63966;47.914;22.266;2023-02-15T09:10:14;6.50;59.72
75387;DHT22;63966;47.914;22.266;2023-02-15T09:13:18;6.63;60.00
75387;DHT22;63966;47.914;22.266;2023-02-15T09:16:22;6.64;58.76
75387;DHT22;63966;47.914;22.266;2023-02-15T09:19:27;6.86;59.09
75387;DHT22;63966;47.914;22.266;2023-02-15T09:22:30;6.72;58.78
75387;DHT22;63966;47.914;22.266;2023-02-15T09:25:35;6.79;57.17
75387;DHT22;63966;47.914;22.266;2023-02-15T09:28:38;6.92;56.67
75387;DHT22;63966;47.914;22.266;2023-02-15T09:31:45;6.92;57.12
75387;DHT22;63966;47.914;22.266;2023-02-15T09:34:49;6.91;57.51
75387;DHT22;63966;47.914;22.266;2023-02-15T09:37:53;6.92;57.91
75387;DHT22;63966;47.914;22.266;2023-02-15T09:48:11;6.95;59.54
75387;DHT22;63966;47.914;22.266;2023-02-15T09:52:33;6.99;59.12
75387;DHT22;63966;47.914;22.266;2023-02-15T10:16:01;6.99;60.05
75387;DHT22;63966;47.914;22.266;2023-02-15T10:26:22;6.98;59.40
75387;DHT22;63966;47.914;22.266;2023-02-15T10:29:39;6.93;58.51
75387;DHT22;63966;47.914;22.266;2023-02-15T10:36:09;7.02;58.37
75387;DHT22;63966;47.914;22.266;2023-02-15T10:39:37;7.00;58.79
75387;DHT22;63966;47.914;22.266;2023-02-15T11:03:23;7.27;59.24
75387;DHT22;63966;47.914;22.266;2023-02-15T11:06:36;7.15;58.51
75387;DHT22;63966;47.914;22.266;2023-02-15T11:09:53;7.09;59.22
75387;DHT22;63966;47.914;22.266;2023-02-15T11:13:14;7.20;59.72
75387;DHT22;63966;47.914;22.266;2023-02-15T11:16:27;7.07;59.44
75387;DHT22;63966;47.914;22.266;2023-02-15T11:19:32;7.24;60.27
75387;DHT22;63966;47.914;22.266;2023-02-15T11:22:38;7.23;58.78
75387;DHT22;63966;47.914;22.266;2023-02-15T11:25:45;7.33;59.41
75387;DHT22;63966;47.914;22.266;2023-02-15T11:28:57;7.42;59.88
75387;DHT22;63966;47.914;22.266;2023-02-15T11:38:24;7.30;58.87
75387;DHT22;63966;47.914;22.266;2023-02-15T11:41:33;7.24;59.03
75387;DHT22;63966;47.914;22.266;2023-02-15T11:44:44;7.38;58.92
75387;DHT22;63966;47.914;22.266;2023-02-15T11:47:51;7.24;59.07
75387;DHT22;63966;47.914;22.266;2023-02-15T11:50:55;7.17;58.91
75387;DHT22;63966;47.914;22.266;2023-02-15T11:53:59;7.17;58.47
75387;DHT22;63966;47.914;22.266;2023-02-15T12:03:43;7.37;57.89
75387;DHT22;63966;47.914;22.266;2023-02-15T12:06:58;7.30;58.39
75387;DHT22;63966;47.914;22.266;2023-02-15T12:13:29;7.24;58.06
75387;DHT22;63966;47.914;22.266;2023-02-15T12:19:45;7.51;56.48
75387;DHT22;63966;47.914;22.266;2023-02-15T12:23:04;7.57;56.80
75387;DHT22;63966;47.914;22.266;2023-02-15T12:26:10;7.50;56.54
75387;DHT22;63966;47.914;22.266;2023-02-15T12:29:16;7.38;57.55
75387;DHT22;63966;47.914;22.266;2023-02-15T12:32:26;7.42;56.72
75387;DHT22;63966;47.914;22.266;2023-02-15T12:35:33;7.55;58.24
75387;DHT22;63966;47.914;22.266;2023-02-15T12:38:38;7.60;58.50
75387;DHT22;63966;47.914;22.266;2023-02-15T12:45:19;7.46;60.04
75387;DHT22;63966;47.914;22.266;2023-02-15T12:48:23;7.48;57.89
75387;DHT22;63966;47.914;22.266;2023-02-15T12:51:28;7.38;58.50
75387;DHT22;63966;47.914;22.266;2023-02-15T12:57:39;7.33;58.81
75387;DHT22;63966;47.914;22.266;2023-02-15T13:00:43;7.27;58.58
75387;DHT22;63966;47.914;22.266;2023-02-15T13:04:04;7.28;59.33
75387;DHT22;63966;47.914;22.266;2023-02-15T13:07:11;7.46;58.52
75387;DHT22;63966;47.914;22.266;2023-02-15T13:10:34;7.42;58.90
75387;DHT22;63966;47.914;22.266;2023-02-15T13:13:53;7.43;59.09
75387;DHT22;63966;47.914;22.266;2023-02-15T13:17:00;7.53;59.15
75387;DHT22;63966;47.914;22.266;2023-02-15T13:20:13;7.60;59.25
75387;DHT22;63966;47.914;22.266;2023-02-15T13:23:26;7.77;58.88
75387;DHT22;63966;47.914;22.266;2023-02-15T13:26:31;7.68;58.48
75387;DHT22;63966;47.914;22.266;2023-02-15T13:29:37;7.60;58.92
75387;DHT22;63966;47.914;22.266;2023-02-15T13:32:43;7.53;58.60
75387;DHT22;63966;47.914;22.266;2023-02-15T13:42:51;7.60;58.40
75387;DHT22;63966;47.914;22.266;2023-02-15T13:50:07;7.42;59.42
75387;DHT22;63966;47.914;22.266;2023-02-15T14:04:11;7.27;60.81
75387;DHT22;63966;47.914;22.266;2023-02-15T14:13:47;7.23;61.38
75387;DHT22;63966;47.914;22.266;2023-02-15T14:27:48;7.16;61.61
75387;DHT22;63966;47.914;22.266;2023-02-15T14:30:55;7.13;61.24
75387;DHT22;63966;47.914;22.266;2023-02-15T14:34:00;7.16;61.61
75387;DHT22;63966;47.914;22.266;2023-02-15T14:37:04;7.09;61.61
75387;DHT22;63966;47.914;22.266;2023-02-15T14:44:18;6.85;61.71
75387;DHT22;63966;47.914;22.266;2023-02-15T14:47:33;6.78;62.27
75387;DHT22;63966;47.914;22.266;2023-02-15T14:50:45;6.75;62.59
75387;DHT22;63966;47.914;22.266;2023-02-15T14:53:49;6.72;62.75
75387;DHT22;63966;47.914;22.266;2023-02-15T15:00:31;6.68;63.33
75387;DHT22;63966;47.914;22.266;2023-02-15T15:03:41;6.77;62.99
75387;DHT22;63966;47.914;22.266;2023-02-15T15:06:59;6.81;62.43
75387;DHT22;63966;47.914;22.266;2023-02-15T15:26:33;6.13;64.88
75387;DHT22;63966;47.914;22.266;2023-02-15T15:29:40;6.05;65.15
75387;DHT22;63966;47.914;22.266;2023-02-15T15:49:38;5.90;68.49
75387;DHT22;63966;47.914;22.266;2023-02-15T15:52:57;5.76;69.11
75387;DHT22;63966;47.914;22.266;2023-02-15T15:56:06;5.76;69.50
75387;DHT22;63966;47.914;22.266;2023-02-15T15:59:19;5.63;69.97
75387;DHT22;63966;47.914;22.266;2023-02-15T16:02:25;5.72;70.03
75387;DHT22;63966;47.914;22.266;2023-02-15T16:05:36;5.79;69.78
75387;DHT22;63966;47.914;22.266;2023-02-15T16:08:39;5.52;70.70
75387;DHT22;63966;47.914;22.266;2023-02-15T16:11:51;5.26;71.67
75387;DHT22;63966;47.914;22.266;2023-02-15T16:14:55;5.24;72.20
75387;DHT22;63966;47.914;22.266;2023-02-15T16:18:00;5.31;71.78
75387;DHT22;63966;47.914;22.266;2023-02-15T16:21:04;5.21;72.33
75387;DHT22;63966;47.914;22.266;2023-02-15T16:27:45;4.75;74.00
75387;DHT22;63966;47.914;22.266;2023-02-15T16:31:06;4.77;74.18
75387;DHT22;63966;47.914;22.266;2023-02-15T16:34:17;4.65;74.35
75387;DHT22;63966;47.914;22.266;2023-02-15T16:37:23;4.37;75.63
75387;DHT22;63966;47.914;22.266;2023-02-15T16:40:41;4.27;75.91
75387;DHT22;63966;47.914;22.266;2023-02-15T16:43:48;4.13;76.51
75387;DHT22;63966;47.914;22.266;2023-02-15T16:46:54;4.07;76.67
75387;DHT22;63966;47.914;22.266;2023-02-15T16:50:00;3.86;77.49
75387;DHT22;63966;47.914;22.266;2023-02-15T16:53:07;3.72;77.90
75387;DHT22;63966;47.914;22.266;2023-02-15T16:56:23;3.54;78.15
75387;DHT22;63966;47.914;22.266;2023-02-15T16:59:35;3.35;78.74
75387;DHT22;63966;47.914;22.266;2023-02-15T17:02:39;3.36;78.95
75387;DHT22;63966;47.914;22.266;2023-02-15T17:06:01;3.17;79.38
75387;DHT22;63966;47.914;22.266;2023-02-15T17:09:13;3.00;79.90
75387;DHT22;63966;47.914;22.266;2023-02-15T17:12:53;2.79;80.41
75387;DHT22;63966;47.914;22.266;2023-02-15T17:19:14;2.52;81.44
75387;DHT22;63966;47.914;22.266;2023-02-15T17:22:24;2.62;81.78
75387;DHT22;63966;47.914;22.266;2023-02-15T17:25:54;2.72;81.49
75387;DHT22;63966;47.914;22.266;2023-02-15T17:32:26;2.73;81.51
75387;DHT22;63966;47.914;22.266;2023-02-15T17:35:32;2.75;81.54
75387;DHT22;63966;47.914;22.266;2023-02-15T17:38:38;2.69;81.36
75387;DHT22;63966;47.914;22.266;2023-02-15T17:41:42;2.54;80.99
75387;DHT22;63966;47.914;22.266;2023-02-15T17:44:46;2.36;81.56
75387;DHT22;63966;47.914;22.266;2023-02-15T17:47:50;2.35;82.08
75387;DHT22;63966;47.914;22.266;2023-02-15T17:50:54;2.45;82.36
75387;DHT22;63966;47.914;22.266;2023-02-15T17:53:58;2.31;82.12
75387;DHT22;63966;47.914;22.266;2023-02-15T17:57:20;2.08;82.14
75387;DHT22;63966;47.914;22.266;2023-02-15T18:00:25;1.98;82.44
75387;DHT22;63966;47.914;22.266;2023-02-15T18:03:49;1.90;83.07
75387;DHT22;63966;47.914;22.266;2023-02-15T18:07:12;1.81;83.57
75387;DHT22;63966;47.914;22.266;2023-02-15T18:10:35;1.57;82.72
75387;DHT22;63966;47.914;22.266;2023-02-15T18:13:57;1.43;84.28
75387;DHT22;63966;47.914;22.266;2023-02-15T18:17:05;1.45;84.83
75387;DHT22;63966;47.914;22.266;2023-02-15T18:20:34;1.52;84.44
75387;DHT22;63966;47.914;22.266;2023-02-15T18:23:39;1.62;84.89
75387;DHT22;63966;47.914;22.266;2023-02-15T18:26:45;1.74;84.70
75387;DHT22;63966;47.914;22.266;2023-02-15T18:29:49;1.63;84.34
75387;DHT22;63966;47.914;22.266;2023-02-15T18:32:55;1.83;84.32
75387;DHT22;63966;47.914;22.266;2023-02-15T18:36:01;1.86;84.64
75387;DHT22;63966;47.914;22.266;2023-02-15T18:39:25;1.88;83.88
75387;DHT22;63966;47.914;22.266;2023-02-15T18:42:33;2.01;84.08
75387;DHT22;63966;47.914;22.266;2023-02-15T18:45:41;1.83;84.13
75387;DHT22;63966;47.914;22.266;2023-02-15T18:48:45;1.59;84.77
75387;DHT22;63966;47.914;22.266;2023-02-15T18:51:50;1.43;84.82
75387;DHT22;63966;47.914;22.266;2023-02-15T18:54:58;1.32;85.50
75387;DHT22;63966;47.914;22.266;2023-02-15T18:58:03;1.47;86.24
75387;DHT22;63966;47.914;22.266;2023-02-15T19:01:16;1.39;85.81
75387;DHT22;63966;47.914;22.266;2023-02-15T19:04:20;1.29;85.94
75387;DHT22;63966;47.914;22.266;2023-02-15T19:07:28;1.36;86.50
75387;DHT22;63966;47.914;22.266;2023-02-15T19:10:35;1.34;86.50
75387;DHT22;63966;47.914;22.266;2023-02-15T19:13:39;1.39;86.47
75387;DHT22;63966;47.914;22.266;2023-02-15T19:16:43;1.22;86.33
75387;DHT22;63966;47.914;22.266;2023-02-15T19:19:47;1.08;86.73
75387;DHT22;63966;47.914;22.266;2023-02-15T19:22:53;1.08;87.61
75387;DHT22;63966;47.914;22.266;2023-02-15T19:25:58;1.08;87.34
75387;DHT22;63966;47.914;22.266;2023-02-15T19:29:02;0.94;87.60
75387;DHT22;63966;47.914;22.266;2023-02-15T19:32:07;0.83;87.70
75387;DHT22;63966;47.914;22.266;2023-02-15T19:35:17;0.76;87.85
75387;DHT22;63966;47.914;22.266;2023-02-15T19:38:31;0.70;87.80
75387;DHT22;63966;47.914;22.266;2023-02-15T19:41:35;0.66;88.02
75387;DHT22;63966;47.914;22.266;2023-02-15T19:44:40;0.60;88.22
75387;DHT22;63966;47.914;22.266;2023-02-15T19:47:46;0.53;88.41
75387;DHT22;63966;47.914;22.266;2023-02-15T19:50:50;0.40;88.58
75387;DHT22;63966;47.914;22.266;2023-02-15T19:53:55;0.33;88.69
75387;DHT22;63966;47.914;22.266;2023-02-15T19:57:00;0.22;88.84
75387;DHT22;63966;47.914;22.266;2023-02-15T20:00:15;0.09;88.77
75387;DHT22;63966;47.914;22.266;2023-02-15T20:03:25;-0.03;88.62
75387;DHT22;63966;47.914;22.266;2023-02-15T20:06:28;-0.05;88.93
75387;DHT22;63966;47.914;22.266;2023-02-15T20:09:33;-0.13;88.93
75387;DHT22;63966;47.914;22.266;2023-02-15T20:12:43;-0.22;89.01
75387;DHT22;63966;47.914;22.266;2023-02-15T20:15:47;-0.29;89.27
75387;DHT22;63966;47.914;22.266;2023-02-15T20:18:51;-0.32;90.04
75387;DHT22;63966;47.914;22.266;2023-02-15T20:21:56;-0.22;91.30
75387;DHT22;63966;47.914;22.266;2023-02-15T20:25:01;-0.27;91.24
75387;DHT22;63966;47.914;22.266;2023-02-15T20:28:05;-0.34;91.28
75387;DHT22;63966;47.914;22.266;2023-02-15T20:31:16;-0.43;90.92
75387;DHT22;63966;47.914;22.266;2023-02-15T20:34:21;-0.41;90.87
75387;DHT22;63966;47.914;22.266;2023-02-15T20:37:27;-0.46;90.91
75387;DHT22;63966;47.914;22.266;2023-02-15T20:40:33;-0.47;90.67
75387;DHT22;63966;47.914;22.266;2023-02-15T20:43:37;-0.52;90.66
75387;DHT22;63966;47.914;22.266;2023-02-15T20:46:53;-0.49;90.76
75387;DHT22;63966;47.914;22.266;2023-02-15T20:49:58;-0.46;90.79
75387;DHT22;63966;47.914;22.266;2023-02-15T20:53:02;-0.43;91.21
75387;DHT22;63966;47.914;22.266;2023-02-15T20:56:08;-0.43;91.24
75387;DHT22;63966;47.914;22.266;2023-02-15T20:59:26;-0.39;91.39
75387;DHT22;63966;47.914;22.266;2023-02-15T21:02:30;-0.40;91.40
75387;DHT22;63966;47.914;22.266;2023-02-15T21:05:33;-0.37;91.36
75387;DHT22;63966;47.914;22.266;2023-02-15T21:08:37;-0.40;91.51
75387;DHT22;63966;47.914;22.266;2023-02-15T21:11:45;-0.41;91.74
75387;DHT22;63966;47.914;22.266;2023-02-15T21:14:50;-0.36;91.95
75387;DHT22;63966;47.914;22.266;2023-02-15T21:17:55;-0.33;91.89
75387;DHT22;63966;47.914;22.266;2023-02-15T21:21:03;-0.41;91.61
75387;DHT22;63966;47.914;22.266;2023-02-15T21:24:18;-0.50;90.97
75387;DHT22;63966;47.914;22.266;2023-02-15T21:27:22;-0.58;90.57
75387;DHT22;63966;47.914;22.266;2023-02-15T21:30:27;-0.66;90.56
75387;DHT22;63966;47.914;22.266;2023-02-15T21:33:31;-0.68;90.49
75387;DHT22;63966;47.914;22.266;2023-02-15T21:36:35;-0.67;90.68
75387;DHT22;63966;47.914;22.266;2023-02-15T21:39:39;-0.71;90.51
75387;DHT22;63966;47.914;22.266;2023-02-15T21:42:43;-0.75;90.52
75387;DHT22;63966;47.914;22.266;2023-02-15T21:46:13;-0.84;90.65
75387;DHT22;63966;47.914;22.266;2023-02-15T21:49:35;-0.92;90.80
75387;DHT22;63966;47.914;22.266;2023-02-15T21:52:39;-1.01;91.12
75387;DHT22;63966;47.914;22.266;2023-02-15T21:55:43;-1.01;91.35
75387;DHT22;63966;47.914;22.266;2023-02-15T21:58:47;-1.01;91.40
75387;DHT22;63966;47.914;22.266;2023-02-15T22:01:51;-1.02;91.16
75387;DHT22;63966;47.914;22.266;2023-02-15T22:04:55;-1.11;91.25
75387;DHT22;63966;47.914;22.266;2023-02-15T22:07:59;-1.13;91.81
75387;DHT22;63966;47.914;22.266;2023-02-15T22:11:07;-1.25;91.77
75387;DHT22;63966;47.914;22.266;2023-02-15T22:17:30;-1.26;91.26
75387;DHT22;63966;47.914;22.266;2023-02-15T22:20:33;-1.32;91.21
75387;DHT22;63966;47.914;22.266;2023-02-15T22:23:37;-1.32;91.16
75387;DHT22;63966;47.914;22.266;2023-02-15T22:26:40;-1.40;91.28
75387;DHT22;63966;47.914;22.266;2023-02-15T22:29:44;-1.38;91.50
75387;DHT22;63966;47.914;22.266;2023-02-15T22:32:48;-1.38;91.49
75387;DHT22;63966;47.914;22.266;2023-02-15T22:35:52;-1.42;91.44
75387;DHT22;63966;47.914;22.266;2023-02-15T22:38:56;-1.40;91.59
75387;DHT22;63966;47.914;22.266;2023-02-15T22:42:00;-1.40;91.51
75387;DHT22;63966;47.914;22.266;2023-02-15T22:45:04;-1.43;91.51
75387;DHT22;63966;47.914;22.266;2023-02-15T22:48:10;-1.56;91.47
75387;DHT22;63966;47.914;22.266;2023-02-15T22:51:15;-1.71;91.68
75387;DHT22;63966;47.914;22.266;2023-02-15T22:54:19;-1.83;91.98
75387;DHT22;63966;47.914;22.266;2023-02-15T22:57:31;-1.84;92.56
75387;DHT22;63966;47.914;22.266;2023-02-15T23:00:38;-1.75;93.17
75387;DHT22;63966;47.914;22.266;2023-02-15T23:03:42;-1.67;93.19
75387;DHT22;63966;47.914;22.266;2023-02-15T23:06:46;-1.74;93.01